Time;durP1;ratioP1;P1;durP2;ratioP2;P2;SDS_P1;SDS_P2;PMS_P1;PMS_P2;Temp;Humidity;BMP_temperature;BMP_pressure;BME280_temperature;BME280_humidity;BME280_pressure;Samples;Min_cycle;Max_cycle;Signal;HPM_P1;HPM_P2
2023/08/13 00:00:35;;;;;;;3.23;3.03;;;21.00;99.90;;;;;;5126303;28;20212;-45
2023/08/13 00:03:06;;;;;;;3.70;3.40;;;20.90;99.90;;;;;;5144628;28;20452;-46
2023/08/13 00:05:37;;;;;;;3.07;2.90;;;20.90;99.90;;;;;;5142170;28;20181;-47
2023/08/13 00:08:07;;;;;;;3.07;2.97;;;20.80;99.90;;;;;;5134757;28;20210;-47
2023/08/13 00:10:38;;;;;;;5.60;4.60;;;20.70;99.90;;;;;;5145100;28;20248;-46
2023/08/13 00:13:10;;;;;;;2.63;2.43;;;20.60;99.90;;;;;;5140684;28;20197;-45
2023/08/13 00:15:41;;;;;;;2.33;2.23;;;20.60;99.90;;;;;;5124902;28;20433;-47
2023/08/13 00:18:11;;;;;;;2.77;2.53;;;20.60;99.90;;;;;;5143611;28;20444;-46
2023/08/13 00:20:42;;;;;;;2.50;2.40;;;20.50;99.90;;;;;;5128331;28;20221;-46
2023/08/13 00:23:13;;;;;;;2.80;2.70;;;20.40;99.90;;;;;;5126825;28;20190;-46
2023/08/13 00:25:44;;;;;;;2.93;2.83;;;20.40;99.90;;;;;;5144036;28;20192;-46
2023/08/13 00:28:14;;;;;;;2.43;2.33;;;20.30;99.90;;;;;;5140237;28;20647;-46
2023/08/13 00:30:45;;;;;;;3.53;2.90;;;20.30;99.90;;;;;;5127029;28;20205;-47
2023/08/13 00:33:15;;;;;;;3.67;2.20;;;20.20;99.90;;;;;;5140220;28;20376;-46
2023/08/13 00:35:46;;;;;;;3.63;3.43;;;20.20;99.90;;;;;;5148313;28;20585;-46
2023/08/13 00:38:17;;;;;;;3.13;3.03;;;20.20;99.90;;;;;;5128577;28;20276;-46
2023/08/13 00:40:47;;;;;;;2.90;2.80;;;20.20;99.90;;;;;;5145357;28;20202;-45
2023/08/13 00:43:18;;;;;;;2.70;2.60;;;20.10;99.90;;;;;;5143036;28;20189;-45
2023/08/13 00:45:49;;;;;;;2.67;2.43;;;20.10;99.90;;;;;;5147713;28;20545;-46
2023/08/13 00:48:20;;;;;;;3.00;2.80;;;20.00;99.90;;;;;;5129112;28;20272;-47
2023/08/13 00:50:51;;;;;;;3.17;2.37;;;20.00;99.90;;;;;;5126531;28;20753;-47
2023/08/13 00:53:23;;;;;;;3.70;3.40;;;19.90;99.90;;;;;;5147179;28;20465;-45
2023/08/13 00:55:53;;;;;;;2.93;2.77;;;20.00;99.90;;;;;;5148983;28;20615;-46
2023/08/13 00:58:24;;;;;;;2.60;2.50;;;19.90;99.90;;;;;;5147420;28;20487;-46
2023/08/13 01:00:55;;;;;;;3.10;2.90;;;19.90;99.90;;;;;;5146917;28;20228;-46
2023/08/13 01:03:26;;;;;;;3.40;2.57;;;19.90;99.90;;;;;;5117552;28;20317;-47
2023/08/13 01:06:10;;;;;;;2.57;2.50;;;19.80;99.90;;;;;;5145952;28;20194;-46
2023/08/13 01:09:21;;;;;;;2.23;2.10;;;19.80;99.90;;;;;;5143315;28;20213;-46
2023/08/13 01:12:22;;;;;;;2.37;2.27;;;19.80;99.90;;;;;;5144679;28;20464;-46
2023/08/13 01:15:18;;;;;;;10.67;3.20;;;19.80;99.90;;;;;;5144482;28;20495;-46
2023/08/13 01:17:50;;;;;;;3.17;2.83;;;19.70;99.90;;;;;;5148485;28;20456;-46
2023/08/13 01:20:31;;;;;;;3.53;3.20;;;19.60;99.90;;;;;;5147717;28;21017;-46
2023/08/13 01:23:02;;;;;;;3.70;2.90;;;19.60;99.90;;;;;;5145584;28;20854;-46
2023/08/13 01:25:33;;;;;;;3.10;3.00;;;19.60;99.90;;;;;;5141941;28;20453;-46
2023/08/13 01:28:26;;;;;;;3.40;3.20;;;19.60;99.90;;;;;;5129960;28;20228;-46
2023/08/13 01:31:05;;;;;;;4.30;4.00;;;19.60;99.90;;;;;;5134522;28;20558;-45
2023/08/13 01:33:38;;;;;;;6.03;3.80;;;19.60;99.90;;;;;;5144450;28;20464;-46
2023/08/13 01:36:09;;;;;;;4.03;3.80;;;19.50;99.90;;;;;;5133650;28;20438;-46
2023/08/13 01:38:40;;;;;;;6.00;4.47;;;19.50;99.90;;;;;;5146369;28;20894;-45
2023/08/13 01:41:11;;;;;;;3.53;3.23;;;19.50;99.90;;;;;;5131868;28;20533;-46
2023/08/13 01:43:41;;;;;;;7.80;3.60;;;19.50;99.90;;;;;;5129480;28;20264;-46
2023/08/13 01:46:12;;;;;;;3.30;3.20;;;19.60;99.90;;;;;;5144705;28;20192;-46
2023/08/13 01:48:43;;;;;;;3.87;3.67;;;19.70;99.90;;;;;;5147314;28;20348;-46
2023/08/13 01:51:14;;;;;;;4.00;3.70;;;19.70;99.90;;;;;;5142860;28;20202;-46
2023/08/13 01:53:44;;;;;;;3.63;3.33;;;19.80;99.90;;;;;;5146465;28;20210;-45
2023/08/13 01:56:15;;;;;;;4.87;3.20;;;19.90;99.90;;;;;;5144966;28;20192;-46
2023/08/13 01:58:46;;;;;;;3.73;3.50;;;20.00;99.90;;;;;;5145403;28;20193;-46
2023/08/13 02:01:16;;;;;;;3.50;3.23;;;20.00;99.90;;;;;;5144638;28;20209;-46
2023/08/13 02:03:47;;;;;;;3.70;3.50;;;20.00;99.90;;;;;;5143532;28;20183;-46
2023/08/13 02:06:18;;;;;;;3.20;3.10;;;20.00;99.90;;;;;;5128828;28;20252;-46
2023/08/13 02:08:49;;;;;;;4.17;3.80;;;20.00;99.90;;;;;;5147051;28;20197;-46
2023/08/13 02:11:19;;;;;;;3.90;3.70;;;20.00;99.90;;;;;;5146054;28;20232;-45
2023/08/13 02:13:50;;;;;;;3.90;3.53;;;19.90;99.90;;;;;;5144553;28;20237;-46
2023/08/13 02:16:21;;;;;;;3.10;3.00;;;20.00;99.90;;;;;;5145729;28;20193;-46
2023/08/13 02:18:51;;;;;;;3.10;3.00;;;20.00;99.90;;;;;;5147856;28;20657;-46
2023/08/13 02:21:22;;;;;;;3.50;3.20;;;19.90;99.90;;;;;;5143415;28;20205;-46
2023/08/13 02:23:53;;;;;;;3.97;3.53;;;19.90;99.90;;;;;;5146413;28;20197;-46
2023/08/13 02:26:24;;;;;;;3.40;3.20;;;19.90;99.90;;;;;;5147597;28;20189;-47
2023/08/13 02:28:54;;;;;;;9.23;3.43;;;19.90;99.90;;;;;;5133768;28;20670;-45
2023/08/13 02:31:25;;;;;;;3.33;3.23;;;19.90;99.90;;;;;;5144811;28;20609;-45
2023/08/13 02:33:56;;;;;;;4.10;3.70;;;19.90;99.90;;;;;;5147591;28;20306;-46
2023/08/13 02:36:26;;;;;;;5.90;3.27;;;19.80;99.90;;;;;;5141912;28;20204;-46
2023/08/13 02:38:57;;;;;;;2.97;2.77;;;19.80;99.90;;;;;;5144973;28;20185;-48
2023/08/13 02:41:28;;;;;;;4.00;3.70;;;19.80;99.90;;;;;;5146686;28;20701;-46
2023/08/13 02:43:59;;;;;;;3.90;3.50;;;19.70;99.90;;;;;;5143692;28;20248;-45
2023/08/13 02:46:29;;;;;;;2.93;2.73;;;19.60;99.90;;;;;;5142126;28;20603;-45
2023/08/13 02:49:00;;;;;;;5.80;3.50;;;19.50;99.90;;;;;;5145255;28;20188;-46
2023/08/13 02:51:31;;;;;;;3.13;3.03;;;19.40;99.90;;;;;;5137702;28;20210;-45
2023/08/13 02:54:01;;;;;;;3.60;3.40;;;19.30;99.90;;;;;;5142427;28;20212;-46
2023/08/13 02:56:32;;;;;;;2.80;2.70;;;19.10;99.90;;;;;;5145479;28;20193;-46
2023/08/13 02:59:03;;;;;;;3.50;3.40;;;19.10;99.90;;;;;;5126250;28;20189;-46
2023/08/13 03:01:34;;;;;;;3.20;3.10;;;19.00;99.90;;;;;;5126016;28;20224;-46
2023/08/13 03:04:05;;;;;;;2.90;2.80;;;18.90;99.90;;;;;;5143174;28;20178;-45
2023/08/13 03:06:36;;;;;;;3.50;3.30;;;18.90;99.90;;;;;;5131479;28;20186;-44
2023/08/13 03:09:07;;;;;;;3.63;3.43;;;18.80;99.90;;;;;;5145004;28;20452;-46
2023/08/13 03:11:37;;;;;;;3.80;3.60;;;18.80;99.90;;;;;;5139334;28;20232;-47
2023/08/13 03:14:08;;;;;;;3.80;3.60;;;18.80;99.90;;;;;;5142714;28;20212;-45
2023/08/13 03:16:39;;;;;;;3.97;3.20;;;18.70;99.90;;;;;;5145273;28;20276;-46
2023/08/13 03:19:10;;;;;;;3.50;3.40;;;18.70;99.90;;;;;;5141791;28;20198;-46
2023/08/13 03:21:40;;;;;;;3.33;3.23;;;18.70;99.90;;;;;;5143106;28;20289;-45
2023/08/13 03:24:11;;;;;;;4.90;3.83;;;18.60;99.90;;;;;;5142895;28;20193;-45
2023/08/13 03:26:42;;;;;;;3.20;3.00;;;18.60;99.90;;;;;;5143306;28;20185;-45
2023/08/13 03:29:13;;;;;;;3.67;3.50;;;18.60;99.90;;;;;;5142280;28;20221;-46
2023/08/13 03:31:43;;;;;;;4.00;3.63;;;18.50;99.90;;;;;;5142425;28;20283;-46
2023/08/13 03:34:14;;;;;;;3.83;3.57;;;18.50;99.90;;;;;;5127081;28;20219;-44
2023/08/13 03:36:45;;;;;;;3.80;3.70;;;18.50;99.90;;;;;;5142716;28;20237;-45
2023/08/13 03:39:15;;;;;;;3.93;3.60;;;18.50;99.90;;;;;;5144685;28;20551;-46
2023/08/13 03:41:46;;;;;;;5.30;3.13;;;18.50;99.90;;;;;;5139133;28;20229;-45
2023/08/13 03:44:17;;;;;;;7.30;3.60;;;18.50;99.90;;;;;;5142331;28;20279;-46
2023/08/13 03:46:48;;;;;;;3.83;3.63;;;18.50;99.90;;;;;;5142386;28;20586;-45
2023/08/13 03:49:18;;;;;;;3.43;3.13;;;18.60;99.90;;;;;;5140762;28;20182;-45
2023/08/13 03:51:49;;;;;;;4.00;3.77;;;18.60;99.90;;;;;;5142088;28;20695;-46
2023/08/13 03:54:20;;;;;;;3.70;3.40;;;18.60;99.90;;;;;;5139047;28;20224;-45
2023/08/13 03:56:50;;;;;;;3.10;2.97;;;18.60;99.90;;;;;;5144260;28;20289;-45
2023/08/13 03:59:21;;;;;;;3.90;3.47;;;18.60;99.90;;;;;;5139653;28;20193;-46
2023/08/13 04:01:52;;;;;;;4.37;3.97;;;18.60;99.90;;;;;;5144904;28;20213;-45
2023/08/13 04:04:23;;;;;;;3.30;3.07;;;18.60;99.90;;;;;;5139434;28;20194;-45
2023/08/13 04:06:53;;;;;;;4.70;3.90;;;18.70;99.90;;;;;;5146190;28;20220;-45
2023/08/13 04:09:24;;;;;;;3.47;3.23;;;18.70;99.90;;;;;;5145605;28;20181;-44
2023/08/13 04:11:55;;;;;;;3.70;3.50;;;18.80;99.90;;;;;;5149283;28;20201;-45
2023/08/13 04:14:26;;;;;;;2.40;2.30;;;18.80;99.90;;;;;;5145849;28;20276;-46
2023/08/13 04:16:56;;;;;;;3.93;3.63;;;18.80;99.90;;;;;;5134229;28;20194;-46
2023/08/13 04:19:27;;;;;;;2.53;2.43;;;18.90;99.90;;;;;;5129719;28;20273;-46
2023/08/13 04:21:58;;;;;;;4.10;3.80;;;19.00;99.90;;;;;;5145366;28;20209;-45
2023/08/13 04:24:29;;;;;;;3.33;3.17;;;19.10;99.90;;;;;;5149071;28;20181;-46
2023/08/13 04:27:00;;;;;;;3.00;2.90;;;19.20;99.90;;;;;;5136678;28;20204;-46
2023/08/13 04:29:31;;;;;;;3.13;2.93;;;19.20;99.90;;;;;;5147987;28;20558;-47
2023/08/13 04:32:02;;;;;;;2.87;2.77;;;19.30;99.90;;;;;;5145452;28;20833;-47
2023/08/13 04:34:33;;;;;;;4.03;3.60;;;19.30;99.90;;;;;;5142772;28;20491;-46
2023/08/13 04:37:04;;;;;;;2.83;2.73;;;19.50;99.90;;;;;;5131733;28;20209;-46
2023/08/13 04:39:34;;;;;;;3.53;3.30;;;19.60;99.90;;;;;;5142595;28;20182;-45
2023/08/13 04:42:05;;;;;;;2.93;2.70;;;19.60;99.90;;;;;;5148542;28;20292;-45
2023/08/13 04:44:36;;;;;;;2.63;2.53;;;19.70;99.90;;;;;;5149183;28;20193;-46
2023/08/13 04:47:07;;;;;;;2.97;2.73;;;19.90;99.90;;;;;;5135178;28;20196;-46
2023/08/13 04:49:38;;;;;;;2.23;2.13;;;20.00;99.90;;;;;;5132726;28;20441;-46
2023/08/13 04:52:09;;;;;;;4.07;2.70;;;20.10;99.90;;;;;;5129106;28;20264;-46
2023/08/13 04:54:39;;;;;;;4.97;1.90;;;20.30;99.90;;;;;;5142944;28;20205;-46
2023/08/13 04:57:10;;;;;;;1.90;1.80;;;21.00;99.90;;;;;;5151544;28;20181;-46
2023/08/13 04:59:41;;;;;;;7.40;3.03;;;21.80;99.90;;;;;;5150393;28;20178;-46
2023/08/13 05:02:11;;;;;;;2.27;2.10;;;22.10;99.90;;;;;;5127636;28;20205;-45
2023/08/13 05:04:42;;;;;;;2.27;2.10;;;22.30;99.90;;;;;;5142950;28;20217;-46
2023/08/13 05:07:13;;;;;;;1.60;1.60;;;22.50;99.90;;;;;;5141908;28;20185;-46
2023/08/13 05:09:43;;;;;;;2.50;2.10;;;22.30;99.90;;;;;;5145015;28;20265;-45
2023/08/13 05:12:14;;;;;;;1.83;1.73;;;22.10;99.90;;;;;;5146433;28;20677;-46
2023/08/13 05:14:45;;;;;;;1.53;1.53;;;22.10;99.90;;;;;;5148196;28;20292;-46
2023/08/13 05:17:18;;;;;;;2.03;1.80;;;22.10;99.90;;;;;;5142995;28;20197;-46
2023/08/13 05:19:49;;;;;;;2.50;2.40;;;22.50;99.90;;;;;;5146421;28;20182;-46
2023/08/13 05:22:19;;;;;;;2.77;1.77;;;23.00;99.90;;;;;;5131844;28;20574;-46
2023/08/13 05:24:50;;;;;;;2.07;2.00;;;23.90;99.90;;;;;;5141615;28;20205;-45
2023/08/13 05:27:21;;;;;;;1.47;1.40;;;25.90;99.90;;;;;;5142214;28;20220;-46
2023/08/13 05:29:52;;;;;;;5.90;1.70;;;28.30;99.90;;;;;;5145573;28;20186;-48
2023/08/13 05:32:24;;;;;;;1.47;1.23;;;29.60;95.10;;;;;;5147515;28;20231;-47
2023/08/13 05:34:55;;;;;;;2.10;1.20;;;30.40;86.60;;;;;;5144519;28;20216;-47
2023/08/13 05:37:26;;;;;;;1.43;1.33;;;30.20;82.10;;;;;;5142851;28;20448;-46
2023/08/13 05:39:56;;;;;;;1.80;1.67;;;31.00;77.90;;;;;;5126742;28;20182;-47
2023/08/13 05:42:27;;;;;;;1.20;1.20;;;31.80;71.80;;;;;;5129016;28;20691;-46
2023/08/13 05:44:58;;;;;;;3.23;1.60;;;31.80;66.70;;;;;;5146194;28;20181;-46
2023/08/13 05:47:28;;;;;;;1.90;1.80;;;31.30;67.40;;;;;;5137413;28;20192;-46
2023/08/13 05:49:59;;;;;;;3.07;1.30;;;30.50;66.90;;;;;;5124828;28;20190;-47
2023/08/13 05:52:30;;;;;;;1.33;1.23;;;29.90;68.60;;;;;;5119337;28;20189;-47
2023/08/13 05:55:00;;;;;;;1.43;1.33;;;29.00;70.00;;;;;;5106825;28;20251;-47
2023/08/13 05:57:31;;;;;;;2.40;1.70;;;28.50;72.50;;;;;;5136890;28;20189;-48
2023/08/13 06:00:08;;;;;;;3.13;2.20;;;28.60;71.20;;;;;;5131307;28;20312;-47
2023/08/13 06:02:39;;;;;;;1.60;1.60;;;28.80;69.30;;;;;;5143006;28;20515;-46
2023/08/13 06:05:11;;;;;;;3.63;1.53;;;29.70;67.90;;;;;;5139244;28;20519;-48
2023/08/13 06:07:41;;;;;;;7.60;2.07;;;29.90;62.60;;;;;;5139400;28;20500;-47
2023/08/13 06:10:12;;;;;;;1.73;1.63;;;30.10;63.80;;;;;;5137354;28;20868;-47
2023/08/13 06:12:43;;;;;;;2.97;1.80;;;30.30;62.90;;;;;;5144950;28;20181;-47
2023/08/13 06:15:13;;;;;;;2.37;1.10;;;30.50;61.70;;;;;;5136729;28;20189;-47
2023/08/13 06:17:46;;;;;;;3.00;1.40;;;31.30;58.90;;;;;;5141834;28;20185;-47
2023/08/13 06:20:17;;;;;;;1.80;1.60;;;31.30;57.40;;;;;;5124978;28;20181;-47
2023/08/13 06:22:48;;;;;;;1.67;1.60;;;31.00;57.50;;;;;;5144747;28;20429;-46
2023/08/13 06:25:19;;;;;;;2.70;1.40;;;31.00;58.00;;;;;;5143577;28;20610;-48
2023/08/13 06:27:49;;;;;;;3.90;1.63;;;31.30;57.00;;;;;;5141857;28;20184;-48
2023/08/13 06:30:20;;;;;;;1.37;1.23;;;31.20;56.80;;;;;;5134160;28;20248;-47
2023/08/13 06:32:51;;;;;;;3.27;1.77;;;31.30;56.40;;;;;;5141762;28;20185;-47
2023/08/13 06:35:21;;;;;;;1.63;1.43;;;31.70;54.80;;;;;;5142929;28;20268;-48
2023/08/13 06:37:52;;;;;;;3.40;2.13;;;32.40;54.20;;;;;;5144005;28;20194;-45
2023/08/13 06:40:23;;;;;;;1.70;1.37;;;34.50;50.80;;;;;;5146997;28;20287;-47
2023/08/13 06:42:54;;;;;;;2.63;1.40;;;35.80;47.20;;;;;;5145105;28;20281;-48
2023/08/13 06:45:27;;;;;;;6.37;2.03;;;35.60;45.60;;;;;;5142558;28;20216;-47
2023/08/13 06:47:58;;;;;;;3.10;1.10;;;35.80;43.90;;;;;;5142493;28;20188;-48
2023/08/13 06:50:29;;;;;;;2.95;2.20;;;36.20;42.70;;;;;;5138849;28;20200;-47
2023/08/13 06:52:59;;;;;;;8.32;1.98;;;36.70;40.40;;;;;;5139831;28;20201;-46
2023/08/13 06:55:30;;;;;;;5.57;2.03;;;36.80;40.40;;;;;;5139225;28;20247;-47
2023/08/13 06:58:01;;;;;;;3.47;1.38;;;37.00;39.30;;;;;;5138740;28;20208;-48
2023/08/13 07:00:32;;;;;;;3.20;1.45;;;36.50;38.90;;;;;;5125916;28;20207;-48
2023/08/13 07:03:03;;;;;;;2.10;1.70;;;35.40;40.10;;;;;;5143515;28;20224;-47
2023/08/13 07:05:38;;;;;;;2.90;1.47;;;34.10;40.30;;;;;;5124889;28;20235;-47
2023/08/13 07:08:11;;;;;;;2.73;1.50;;;33.00;42.40;;;;;;5126621;28;20311;-47
2023/08/13 07:10:42;;;;;;;2.73;1.80;;;32.90;42.90;;;;;;5126602;28;20214;-47
2023/08/13 07:13:13;;;;;;;2.00;1.63;;;33.10;43.20;;;;;;5138574;28;20622;-47
2023/08/13 07:15:44;;;;;;;3.67;1.60;;;33.30;42.80;;;;;;5136176;28;20186;-47
2023/08/13 07:18:14;;;;;;;3.13;1.50;;;34.10;42.60;;;;;;5140001;28;20836;-47
2023/08/13 07:20:45;;;;;;;2.07;1.90;;;35.20;41.40;;;;;;5138029;28;20284;-47
2023/08/13 07:23:16;;;;;;;3.42;1.33;;;36.20;39.80;;;;;;5126033;28;20275;-47
2023/08/13 07:25:46;;;;;;;1.50;1.33;;;37.90;37.10;;;;;;5146154;28;20194;-47
2023/08/13 07:28:17;;;;;;;5.93;1.95;;;39.00;35.50;;;;;;5129778;28;20197;-47
2023/08/13 07:30:48;;;;;;;3.97;1.73;;;40.10;33.40;;;;;;5143405;28;20688;-49
2023/08/13 07:33:18;;;;;;;3.35;1.80;;;40.50;32.60;;;;;;5137851;28;20277;-48
2023/08/13 07:35:49;;;;;;;3.42;1.60;;;40.30;31.60;;;;;;5141690;28;20181;-48
2023/08/13 07:38:20;;;;;;;1.70;1.52;;;41.10;30.70;;;;;;5114656;28;20197;-48
2023/08/13 07:40:51;;;;;;;8.02;2.25;;;41.70;30.10;;;;;;5136741;28;20255;-46
2023/08/13 07:43:22;;;;;;;2.45;2.17;;;41.80;29.70;;;;;;5137621;28;20709;-46
2023/08/13 07:45:53;;;;;;;1.92;1.52;;;41.30;30.00;;;;;;5125591;28;20275;-49
2023/08/13 07:48:23;;;;;;;1.95;1.50;;;41.40;30.00;;;;;;5144681;28;20185;-47
2023/08/13 07:50:55;;;;;;;1.60;1.30;;;41.50;29.30;;;;;;5142098;28;20289;-47
2023/08/13 07:53:25;;;;;;;2.25;1.70;;;41.20;29.60;;;;;;5145158;28;20216;-47
2023/08/13 07:55:56;;;;;;;1.92;1.42;;;40.70;29.50;;;;;;5133292;28;20173;-47
2023/08/13 07:58:27;;;;;;;3.05;1.48;;;40.60;29.70;;;;;;5148659;28;20186;-48
2023/08/13 08:00:57;;;;;;;2.60;1.70;;;40.30;30.00;;;;;;5145297;28;20557;-47
2023/08/13 08:03:28;;;;;;;2.25;2.05;;;40.50;30.10;;;;;;5139979;28;20211;-46
2023/08/13 08:05:59;;;;;;;1.60;1.50;;;40.50;29.80;;;;;;5143702;28;20195;-47
2023/08/13 08:08:29;;;;;;;1.88;1.60;;;40.40;30.10;;;;;;5139839;28;20305;-47
2023/08/13 08:11:00;;;;;;;1.77;1.65;;;40.10;29.60;;;;;;5138352;28;22231;-48
2023/08/13 08:13:34;;;;;;;3.60;1.80;;;39.30;30.40;;;;;;5129199;28;20212;-49
2023/08/13 08:16:05;;;;;;;4.78;1.63;;;39.00;31.00;;;;;;5127153;28;20664;-47
2023/08/13 08:18:36;;;;;;;1.90;1.80;;;38.20;32.30;;;;;;5131965;28;20208;-48
2023/08/13 08:21:07;;;;;;;1.70;1.63;;;37.70;32.60;;;;;;5127614;28;20196;-48
2023/08/13 08:23:38;;;;;;;2.67;1.80;;;37.10;34.00;;;;;;5144399;28;20200;-48
2023/08/13 08:26:08;;;;;;;2.88;1.38;;;36.80;33.90;;;;;;5129923;28;20692;-47
2023/08/13 08:28:39;;;;;;;2.15;1.67;;;36.30;34.70;;;;;;5143920;28;20268;-47
2023/08/13 08:31:10;;;;;;;1.58;1.48;;;36.50;34.40;;;;;;5126307;28;20213;-48
2023/08/13 08:33:40;;;;;;;3.88;1.70;;;36.70;34.20;;;;;;5147486;28;20303;-47
2023/08/13 08:36:11;;;;;;;3.65;1.85;;;37.40;32.90;;;;;;5140370;28;20597;-48
2023/08/13 08:38:42;;;;;;;3.05;1.30;;;37.30;32.40;;;;;;5130625;28;20185;-48
2023/08/13 08:41:14;;;;;;;2.17;1.20;;;37.00;33.10;;;;;;5147239;28;20223;-48
2023/08/13 08:43:47;;;;;;;2.90;1.45;;;36.70;34.00;;;;;;5145135;28;20185;-47
2023/08/13 08:46:18;;;;;;;5.60;2.40;;;36.40;34.30;;;;;;5141414;28;20209;-46
2023/08/13 08:48:50;;;;;;;3.05;1.55;;;36.10;34.10;;;;;;5146468;28;20712;-47
2023/08/13 08:51:24;;;;;;;2.92;1.98;;;35.50;35.30;;;;;;5143143;28;20216;-47
2023/08/13 08:53:57;;;;;;;1.13;1.13;;;34.70;36.20;;;;;;5147148;28;20209;-47
2023/08/13 08:56:28;;;;;;;3.53;1.73;;;33.90;37.70;;;;;;5142509;28;20212;-47
2023/08/13 08:58:58;;;;;;;4.05;2.30;;;33.10;38.00;;;;;;5136204;28;20657;-48
2023/08/13 09:01:29;;;;;;;2.93;1.77;;;32.00;39.60;;;;;;5120234;28;20322;-48
2023/08/13 09:04:01;;;;;;;4.73;1.93;;;31.30;41.10;;;;;;5143993;28;20649;-46
2023/08/13 09:06:55;;;;;;;2.30;1.80;;;31.00;41.90;;;;;;5145926;28;20188;-48
2023/08/13 09:09:26;;;;;;;2.80;1.63;;;30.60;41.00;;;;;;5119651;28;20209;-47
2023/08/13 09:11:59;;;;;;;10.43;1.70;;;29.80;41.40;;;;;;5144119;28;20693;-46
2023/08/13 09:14:30;;;;;;;3.77;2.17;;;28.80;43.90;;;;;;5128699;28;20889;-46
2023/08/13 09:17:00;;;;;;;3.77;2.13;;;28.40;44.50;;;;;;5142999;28;20430;-48
2023/08/13 09:19:32;;;;;;;1.27;1.27;;;28.10;45.10;;;;;;5126751;28;20452;-48
2023/08/13 09:22:06;;;;;;;5.20;1.40;;;28.10;45.90;;;;;;5127190;28;20197;-47
2023/08/13 09:24:39;;;;;;;9.53;1.63;;;28.00;45.80;;;;;;5144724;28;20965;-48
2023/08/13 09:27:09;;;;;;;4.90;1.73;;;28.00;46.40;;;;;;5127457;28;20919;-47
2023/08/13 09:29:41;;;;;;;6.67;2.20;;;27.80;47.00;;;;;;5144566;28;20559;-51
2023/08/13 09:32:12;;;;;;;3.27;1.83;;;27.90;46.90;;;;;;5128216;28;20213;-46
2023/08/13 09:34:43;;;;;;;4.67;2.40;;;28.00;47.00;;;;;;5143507;28;20465;-47
2023/08/13 09:37:16;;;;;;;12.07;1.73;;;28.10;47.00;;;;;;5139396;28;20563;-47
2023/08/13 09:39:46;;;;;;;1.30;1.20;;;28.20;46.40;;;;;;5139530;28;20429;-48
2023/08/13 09:42:22;;;;;;;2.43;1.70;;;28.10;46.30;;;;;;5124770;28;20469;-46
2023/08/13 09:44:56;;;;;;;4.73;1.57;;;27.90;46.50;;;;;;5120527;28;20618;-47
2023/08/13 09:47:27;;;;;;;6.63;1.73;;;27.80;47.40;;;;;;5138677;28;20445;-47
2023/08/13 09:50:01;;;;;;;3.40;1.80;;;27.60;47.30;;;;;;5126705;28;21000;-46
2023/08/13 09:52:32;;;;;;;9.73;2.40;;;27.60;46.80;;;;;;5127753;28;20454;-47
2023/08/13 09:55:12;;;;;;;9.83;2.30;;;27.70;47.00;;;;;;5144593;28;20472;-47
2023/08/13 09:57:44;;;;;;;4.43;1.60;;;27.90;46.30;;;;;;5131530;28;20972;-46
2023/08/13 10:00:15;;;;;;;1.50;1.40;;;28.00;45.40;;;;;;5123106;28;20429;-46
2023/08/13 10:02:47;;;;;;;5.20;1.93;;;28.00;45.80;;;;;;5144002;28;20524;-47
2023/08/13 10:05:18;;;;;;;3.03;2.20;;;28.00;45.40;;;;;;5139750;28;20177;-48
2023/08/13 10:07:50;;;;;;;4.23;1.63;;;27.80;45.90;;;;;;5140122;28;20468;-48
2023/08/13 10:10:22;;;;;;;1.83;1.50;;;27.70;45.70;;;;;;5138864;28;20460;-49
2023/08/13 10:12:53;;;;;;;2.93;1.80;;;27.70;45.20;;;;;;5141759;28;20496;-48
2023/08/13 10:15:24;;;;;;;3.90;1.80;;;27.80;45.00;;;;;;5141831;28;20459;-48
2023/08/13 10:17:56;;;;;;;3.70;1.80;;;27.80;44.70;;;;;;5138983;28;20442;-47
2023/08/13 10:20:26;;;;;;;1.30;1.20;;;28.00;44.40;;;;;;5141098;28;20501;-47
2023/08/13 10:22:58;;;;;;;2.40;1.00;;;27.80;43.90;;;;;;5141552;28;20444;-47
2023/08/13 10:25:32;;;;;;;20.43;9.03;;;27.20;45.30;;;;;;5141089;28;20272;-47
2023/08/13 10:28:28;;;;;;;4.90;3.17;;;27.00;46.60;;;;;;5140913;28;20436;-46
2023/08/13 10:31:35;;;;;;;5.70;2.90;;;27.00;46.80;;;;;;5141156;28;20575;-46
2023/08/13 10:34:14;;;;;;;9.57;2.00;;;27.00;46.10;;;;;;5081055;29;20956;-48
2023/08/13 10:36:53;;;;;;;28.53;10.47;;;27.00;45.90;;;;;;5136978;28;20929;-47
2023/08/13 10:39:39;;;;;;;16.00;6.23;;;27.30;46.10;;;;;;5109920;28;20437;-46
2023/08/13 10:42:33;;;;;;;2.97;1.60;;;27.50;46.10;;;;;;5139365;28;20454;-47
2023/08/13 10:45:05;;;;;;;2.90;1.80;;;27.90;45.90;;;;;;5131112;28;20491;-48
2023/08/13 10:47:46;;;;;;;8.30;2.40;;;28.10;45.60;;;;;;5120611;28;20456;-47
2023/08/13 10:50:28;;;;;;;3.10;2.37;;;28.30;45.40;;;;;;5136631;28;20469;-46
2023/08/13 10:53:15;;;;;;;2.67;1.97;;;28.40;44.70;;;;;;5124445;28;20532;-48
2023/08/13 10:55:50;;;;;;;2.70;1.40;;;28.60;44.80;;;;;;5145346;28;20491;-47
2023/08/13 10:58:26;;;;;;;2.97;1.70;;;28.90;42.90;;;;;;5146658;28;20435;-49
2023/08/13 11:01:00;;;;;;;6.80;1.90;;;28.80;43.10;;;;;;5124781;28;20459;-47
2023/08/13 11:03:31;;;;;;;3.37;1.43;;;28.70;44.20;;;;;;5125744;28;20456;-48
2023/08/13 11:06:03;;;;;;;5.93;2.17;;;28.60;44.00;;;;;;5136312;28;20566;-46
2023/08/13 11:08:37;;;;;;;3.67;2.00;;;28.60;44.70;;;;;;5132177;28;20503;-48
2023/08/13 11:11:08;;;;;;;5.27;3.00;;;28.60;44.60;;;;;;5138679;28;20884;-46
2023/08/13 11:13:39;;;;;;;4.07;1.80;;;28.70;44.20;;;;;;5144428;28;20543;-49
2023/08/13 11:16:10;;;;;;;1.63;1.53;;;28.60;44.10;;;;;;5144230;28;20232;-46
2023/08/13 11:18:40;;;;;;;7.70;2.30;;;28.20;44.10;;;;;;5143022;28;20196;-48
2023/08/13 11:21:11;;;;;;;1.80;1.60;;;28.10;44.60;;;;;;5138529;28;20523;-47
2023/08/13 11:23:43;;;;;;;1.93;1.83;;;28.20;45.00;;;;;;5140172;28;20673;-46
2023/08/13 11:26:16;;;;;;;2.00;1.77;;;28.30;44.80;;;;;;5127651;28;20182;-46
2023/08/13 11:28:49;;;;;;;1.70;1.60;;;28.60;43.80;;;;;;5142501;28;20448;-47
2023/08/13 11:31:19;;;;;;;10.13;2.57;;;28.70;43.80;;;;;;5139746;28;20460;-48
2023/08/13 11:33:50;;;;;;;3.10;1.80;;;28.90;43.30;;;;;;5139440;28;20471;-47
2023/08/13 11:36:21;;;;;;;3.40;1.73;;;28.90;43.60;;;;;;5139083;28;20252;-47
2023/08/13 11:38:52;;;;;;;2.60;1.93;;;28.80;44.30;;;;;;5136245;28;20192;-46
2023/08/13 11:41:23;;;;;;;2.63;2.27;;;28.60;43.80;;;;;;5123552;28;20197;-47
2023/08/13 11:43:54;;;;;;;4.23;1.87;;;28.40;44.20;;;;;;5143794;28;20449;-47
2023/08/13 11:46:25;;;;;;;5.63;2.50;;;28.30;44.70;;;;;;5145170;28;20208;-47
2023/08/13 11:49:01;;;;;;;5.07;1.80;;;28.20;45.30;;;;;;5137070;28;20444;-48
2023/08/13 11:51:31;;;;;;;4.10;1.93;;;28.20;45.60;;;;;;5139265;28;20273;-47
2023/08/13 11:54:08;;;;;;;3.10;2.13;;;28.30;45.30;;;;;;5144108;28;20559;-49
2023/08/13 11:56:40;;;;;;;1.90;1.90;;;28.40;44.70;;;;;;5143176;28;20191;-47
2023/08/13 11:59:11;;;;;;;2.60;2.27;;;28.80;43.60;;;;;;5136430;28;20438;-47
2023/08/13 12:01:42;;;;;;;1.90;1.70;;;29.00;43.50;;;;;;5135676;28;20568;-47
2023/08/13 12:04:14;;;;;;;5.73;2.73;;;29.30;43.10;;;;;;5139743;28;20559;-47
2023/08/13 12:06:48;;;;;;;4.33;3.10;;;29.20;42.50;;;;;;5139400;28;20244;-47
2023/08/13 12:09:19;;;;;;;9.10;4.00;;;28.80;42.90;;;;;;5123745;28;20543;-47
2023/08/13 12:11:53;;;;;;;2.07;1.80;;;28.10;44.00;;;;;;5138049;28;20532;-46
2023/08/13 12:14:24;;;;;;;4.67;3.40;;;27.80;44.40;;;;;;5132002;28;20213;-47
2023/08/13 12:16:56;;;;;;;4.30;3.73;;;27.70;45.20;;;;;;5129357;28;20459;-47
2023/08/13 12:19:27;;;;;;;2.63;1.83;;;27.70;45.90;;;;;;5140981;28;20681;-47
2023/08/13 12:21:57;;;;;;;1.80;1.70;;;27.90;45.60;;;;;;5119941;28;20451;-47
2023/08/13 12:24:28;;;;;;;1.67;1.57;;;28.00;45.00;;;;;;5121341;28;20701;-47
2023/08/13 12:26:59;;;;;;;3.03;1.93;;;28.20;45.10;;;;;;5137371;28;20197;-46
2023/08/13 12:29:30;;;;;;;1.57;1.47;;;28.40;45.00;;;;;;5139531;28;20618;-47
2023/08/13 12:32:00;;;;;;;2.97;1.93;;;28.70;44.90;;;;;;5143013;28;20603;-48
2023/08/13 12:34:31;;;;;;;3.27;2.17;;;28.90;43.50;;;;;;5130190;28;20213;-48
2023/08/13 12:37:02;;;;;;;2.37;2.10;;;29.00;43.30;;;;;;5127858;28;20245;-48
2023/08/13 12:39:33;;;;;;;1.77;1.70;;;29.30;43.20;;;;;;5131725;28;20204;-50
2023/08/13 12:42:04;;;;;;;7.10;1.57;;;29.40;42.60;;;;;;5130742;28;20461;-47
2023/08/13 12:44:35;;;;;;;2.27;2.10;;;29.30;43.00;;;;;;5142014;28;20331;-47
2023/08/13 12:47:06;;;;;;;4.20;2.63;;;29.20;43.20;;;;;;5140862;28;20657;-47
2023/08/13 12:49:36;;;;;;;2.47;2.33;;;28.90;44.00;;;;;;5145081;28;20332;-47
2023/08/13 12:52:07;;;;;;;3.60;1.77;;;28.60;44.10;;;;;;5146299;28;20576;-46
2023/08/13 12:54:38;;;;;;;3.57;2.10;;;28.70;43.80;;;;;;5126738;28;20228;-47
2023/08/13 12:57:09;;;;;;;1.40;1.40;;;28.70;43.30;;;;;;5138909;28;20197;-47
2023/08/13 12:59:40;;;;;;;3.70;3.13;;;28.50;43.70;;;;;;5132903;28;20808;-47
2023/08/13 13:02:11;;;;;;;1.70;1.60;;;28.40;44.10;;;;;;5142390;28;20476;-48
2023/08/13 13:04:42;;;;;;;1.80;1.70;;;28.50;44.30;;;;;;5138724;28;20291;-47
2023/08/13 13:07:12;;;;;;;2.53;1.60;;;28.20;44.50;;;;;;5140713;28;20264;-48
2023/08/13 13:09:43;;;;;;;1.87;1.77;;;28.00;43.80;;;;;;5139555;28;20651;-47